Hampton Falls, New Hampshire
Current Conditions -  °F | °C
As of 2:23 PM on Monday 22 Dec 2014 (Local Time) from KPSM Reporting Station
Overcast Overcast  
Wind Chill:   Ceiling: 1100
Heat Index:   Visibility: 10mi
Dew Point:   Wind: 6mph
Humidity: 81%   Direction: 30°NNE
Pressure: 30.34"   Gusts: NA
Location:  42.92°N, 70.86°W
Report Text: KPSM 221923Z 03005KT 10SM BKN011 OVC025 04/01 A3034 RMK AO2A
Loading
Personal Weather Stations






























Interactive Weather Map New forecast layout! Learn more

10-Day Weather Forecast

Advertisements
Track Severe Weather on mobile